createdAt,value
2023-01-29T00:01:26.680Z,101572.75
2023-01-29T00:05:28.827Z,101565.00
2023-01-29T00:09:31.969Z,101568.50
2023-01-29T00:13:34.610Z,101561.59
2023-01-29T00:17:36.562Z,101550.38
2023-01-29T00:21:38.577Z,101541.75
2023-01-29T00:25:40.441Z,101535.72
2023-01-29T00:29:42.359Z,101538.28
2023-01-29T00:33:44.701Z,101536.59
2023-01-29T00:37:47.031Z,101529.72
2023-01-29T00:42:07.462Z,101530.56
2023-01-29T00:46:11.552Z,101526.25
2023-01-29T00:50:13.653Z,101531.34
2023-01-29T00:54:15.675Z,101533.03
2023-01-29T00:58:22.458Z,101519.25
2023-01-29T01:02:43.231Z,101509.03
2023-01-29T01:06:45.224Z,101500.41
2023-01-29T01:10:47.244Z,101495.19
2023-01-29T01:14:49.707Z,101490.94
2023-01-29T01:18:51.633Z,101483.19
2023-01-29T01:22:54.374Z,101476.28
2023-01-29T01:26:56.503Z,101480.59
2023-01-29T01:31:07.714Z,101468.50
2023-01-29T01:35:11.194Z,101466.81
2023-01-29T01:39:13.447Z,101473.69
2023-01-29T01:43:15.691Z,101470.28
2023-01-29T01:47:21.679Z,101475.41
2023-01-29T01:51:26.333Z,101470.28
2023-01-29T01:55:31.449Z,101468.56
2023-01-29T01:59:34.107Z,101479.69
2023-01-29T02:04:09.022Z,101479.72
2023-01-29T02:08:30.889Z,101479.69
2023-01-29T02:12:33.204Z,101481.44
2023-01-29T02:16:36.810Z,101477.97
2023-01-29T02:20:43.915Z,101468.50
2023-01-29T02:24:59.838Z,101472.84
2023-01-29T02:29:25.174Z,101467.66
2023-01-29T02:34:06.537Z,101474.53
2023-01-29T02:38:18.105Z,101463.41
2023-01-29T02:42:40.077Z,101450.47
2023-01-29T02:47:00.489Z,101455.59
2023-01-29T02:51:39.936Z,101447.88
2023-01-29T02:55:51.074Z,101449.63
2023-01-29T03:00:02.877Z,101441.81
2023-01-29T03:04:11.803Z,101449.59
2023-01-29T03:08:20.489Z,101438.44
2023-01-29T03:12:34.112Z,101430.66
2023-01-29T03:16:49.297Z,101438.41
2023-01-29T03:20:58.587Z,101435.81
2023-01-29T03:25:21.541Z,101424.63
2023-01-29T03:29:42.806Z,101428.94
2023-01-29T03:33:54.631Z,101423.75
2023-01-29T03:37:56.940Z,101422.03
2023-01-29T03:42:37.262Z,101420.31
2023-01-29T03:46:52.918Z,101416.88
2023-01-29T03:51:21.214Z,101422.91
2023-01-29T03:55:35.417Z,101424.63
2023-01-29T03:59:46.325Z,101415.19
2023-01-29T04:04:17.906Z,101413.44
2023-01-29T04:08:28.872Z,101406.53
2023-01-29T04:13:02.206Z,101409.13
2023-01-29T04:17:25.708Z,101397.97
2023-01-29T04:21:37.591Z,101398.81
2023-01-29T04:25:46.823Z,101391.09
2023-01-29T04:30:07.610Z,101387.66
2023-01-29T04:34:29.205Z,101374.66
2023-01-29T04:38:51.169Z,101378.88
2023-01-29T04:43:34.291Z,101373.88
2023-01-29T04:47:57.555Z,101376.44
2023-01-29T04:52:14.385Z,101371.19
2023-01-29T04:56:35.425Z,101364.41
2023-01-29T05:00:43.137Z,101365.28
2023-01-29T05:04:47.495Z,101356.66
2023-01-29T05:08:51.188Z,101374.75
2023-01-29T05:13:06.430Z,101367.00
2023-01-29T05:17:17.723Z,101367.00
2023-01-29T05:21:23.001Z,101362.69
2023-01-29T05:25:32.082Z,101373.00
2023-01-29T05:29:33.727Z,101367.84
2023-01-29T05:33:35.715Z,101354.94
2023-01-29T05:37:38.057Z,101344.63
2023-01-29T05:41:40.098Z,101345.47
2023-01-29T05:45:42.301Z,101336.88
2023-01-29T05:49:44.223Z,101333.44
2023-01-29T05:53:46.092Z,101335.16
2023-01-29T05:57:48.041Z,101336.88
2023-01-29T06:01:50.106Z,101340.31
2023-01-29T06:05:52.016Z,101340.34
2023-01-29T06:09:53.973Z,101345.47
2023-01-29T06:13:55.938Z,101352.38
2023-01-29T06:17:57.875Z,101348.06
2023-01-29T06:22:00.290Z,101336.03
2023-01-29T06:26:04.776Z,101347.22
2023-01-29T06:30:07.468Z,101346.34
2023-01-29T06:34:09.848Z,101339.47
2023-01-29T06:38:11.774Z,101333.44
2023-01-29T06:42:13.855Z,101341.19
2023-01-29T06:46:15.845Z,101342.03
2023-01-29T06:50:18.351Z,101343.78
2023-01-29T06:54:20.453Z,101338.63
2023-01-29T06:58:22.522Z,101347.19
2023-01-29T07:02:24.524Z,101343.78
2023-01-29T07:06:30.111Z,101348.06
2023-01-29T07:10:32.498Z,101342.03
2023-01-29T07:14:34.417Z,101323.97
2023-01-29T07:18:37.122Z,101309.31
2023-01-29T07:22:39.185Z,101321.38
2023-01-29T07:26:41.109Z,101320.50
2023-01-29T07:30:43.074Z,101328.25
2023-01-29T07:34:45.106Z,101334.28
2023-01-29T07:38:51.167Z,101344.59
2023-01-29T07:43:01.509Z,101349.78
2023-01-29T07:47:03.525Z,101355.78
2023-01-29T07:51:06.010Z,101360.94
2023-01-29T07:55:08.453Z,101342.81
2023-01-29T07:59:10.435Z,101342.00
2023-01-29T08:03:16.200Z,101328.22
2023-01-29T08:07:18.256Z,101324.75
2023-01-29T08:11:20.310Z,101333.25
2023-01-29T08:15:23.036Z,101328.22
2023-01-29T08:19:25.035Z,101326.47
2023-01-29T08:23:27.264Z,101312.72
2023-01-29T08:27:29.252Z,101322.13
2023-01-29T08:31:31.392Z,101322.13
2023-01-29T08:35:33.327Z,101318.63
2023-01-29T08:39:35.374Z,101324.75
2023-01-29T08:43:37.522Z,101323.00
2023-01-29T08:47:45.520Z,101326.41
2023-01-29T08:51:47.551Z,101325.50
2023-01-29T08:55:49.462Z,101312.63
2023-01-29T08:59:51.469Z,101310.03
2023-01-29T09:03:53.456Z,101308.22
2023-01-29T09:07:58.829Z,101287.66
2023-01-29T09:12:00.872Z,101286.56
2023-01-29T09:16:04.270Z,101289.16
2023-01-29T09:20:07.489Z,101271.00
2023-01-29T09:24:10.759Z,101270.16
2023-01-29T09:28:12.838Z,101268.50
2023-01-29T09:32:16.844Z,101271.78
2023-01-29T09:36:21.652Z,101276.00
2023-01-29T09:40:41.792Z,101271.72
2023-01-29T09:45:17.754Z,101263.28
2023-01-29T09:49:43.239Z,101258.97
2023-01-29T09:53:57.309Z,101245.81
2023-01-29T09:58:19.171Z,101232.72
2023-01-29T10:02:29.548Z,101236.91
2023-01-29T10:06:45.699Z,101227.53
2023-01-29T10:11:24.788Z,101227.38
2023-01-29T10:15:45.162Z,101217.91
2023-01-29T10:20:05.447Z,101219.72
2023-01-29T10:24:17.879Z,101213.44
2023-01-29T10:28:46.005Z,101211.88
2023-01-29T10:32:50.104Z,101211.91
2023-01-29T10:36:55.026Z,101207.75
2023-01-29T10:41:17.130Z,101196.84
2023-01-29T10:45:30.300Z,101187.25
2023-01-29T10:49:59.107Z,101180.34
2023-01-29T10:54:27.594Z,101188.00
2023-01-29T10:58:46.619Z,101180.34
2023-01-29T11:02:51.257Z,101172.59
2023-01-29T11:06:53.649Z,101157.13
2023-01-29T11:11:08.637Z,101147.78
2023-01-29T11:15:27.062Z,101134.88
2023-01-29T11:19:48.736Z,101121.22
2023-01-29T11:24:05.307Z,101106.22
2023-01-29T11:28:10.442Z,101112.19
2023-01-29T11:32:26.225Z,101110.38
2023-01-29T11:36:33.041Z,101108.72
2023-01-29T11:40:38.411Z,101084.69
2023-01-29T11:44:40.325Z,101070.19
2023-01-29T11:49:02.431Z,101060.38
2023-01-29T11:53:23.508Z,101057.06
2023-01-29T11:57:35.665Z,101067.31
2023-01-29T12:01:41.287Z,101062.69
2023-01-29T12:05:55.354Z,101062.94
2023-01-29T12:09:59.732Z,101046.59
2023-01-29T12:14:04.919Z,101056.09
2023-01-29T12:18:43.506Z,101027.00
2023-01-29T12:23:14.453Z,101029.44
2023-01-29T12:27:41.811Z,101010.22
2023-01-29T12:31:53.257Z,101014.69
2023-01-29T12:36:02.877Z,101006.00
2023-01-29T12:40:13.547Z,101018.22
2023-01-29T12:44:23.130Z,100999.44
2023-01-29T12:48:29.452Z,100997.78
2023-01-29T12:53:01.032Z,100989.09
2023-01-29T12:57:08.677Z,100980.38
2023-01-29T13:01:27.108Z,100959.84
2023-01-29T13:05:36.621Z,100969.47
2023-01-29T13:09:42.034Z,100969.31
2023-01-29T13:13:54.069Z,100990.63
2023-01-29T13:18:07.153Z,100980.66
2023-01-29T13:22:19.492Z,100980.75
2023-01-29T13:26:23.029Z,100967.84
2023-01-29T13:30:29.135Z,100954.78
2023-01-29T13:34:34.689Z,100947.88
2023-01-29T13:38:36.740Z,100942.78
2023-01-29T13:42:50.092Z,100949.59
2023-01-29T13:47:05.229Z,100932.25
2023-01-29T13:51:17.971Z,100917.78
2023-01-29T13:55:30.963Z,100906.44
2023-01-29T13:59:54.583Z,100891.84
2023-01-29T14:04:04.877Z,100899.59
2023-01-29T14:08:36.099Z,100917.72
2023-01-29T14:12:39.840Z,100904.81
2023-01-29T14:16:42.087Z,100927.13
2023-01-29T14:20:46.817Z,100936.03
2023-01-29T14:24:50.324Z,100912.69
2023-01-29T14:29:18.766Z,100916.13
2023-01-29T14:33:41.204Z,100909.25
2023-01-29T14:37:48.310Z,100901.72
2023-01-29T14:41:52.522Z,100894.78
2023-01-29T14:45:54.647Z,100888.56
2023-01-29T14:49:59.012Z,100876.72
2023-01-29T14:54:20.955Z,100864.53
2023-01-29T14:58:31.081Z,100868.84
2023-01-29T15:02:45.324Z,100877.59
2023-01-29T15:06:53.010Z,100888.66
2023-01-29T15:11:16.145Z,100879.22
2023-01-29T15:15:54.251Z,100872.25
2023-01-29T15:19:57.662Z,100854.28
2023-01-29T15:24:07.216Z,100857.75
2023-01-29T15:28:11.085Z,100866.16
2023-01-29T15:32:35.181Z,100867.97
2023-01-29T15:36:37.318Z,100854.09
2023-01-29T15:40:39.359Z,100849.09
2023-01-29T15:44:46.257Z,100839.59
2023-01-29T15:48:49.824Z,100836.97
2023-01-29T15:52:53.997Z,100831.03
2023-01-29T15:56:56.170Z,100815.38
2023-01-29T16:01:00.018Z,100810.31
2023-01-29T16:05:03.775Z,100819.94
2023-01-29T16:09:07.133Z,100806.94
2023-01-29T16:13:22.244Z,100807.91
2023-01-29T16:17:35.301Z,100810.31
2023-01-29T16:21:41.478Z,100810.13
2023-01-29T16:25:43.649Z,100820.75
2023-01-29T16:29:47.073Z,100815.34
2023-01-29T16:33:49.606Z,100820.59
2023-01-29T16:37:51.938Z,100821.41
2023-01-29T16:42:27.680Z,100811.16
2023-01-29T16:46:37.924Z,100821.47
2023-01-29T16:50:53.906Z,100822.34
2023-01-29T16:55:13.186Z,100830.88
2023-01-29T16:59:20.927Z,100825.41
2023-01-29T17:03:25.997Z,100814.53
2023-01-29T17:07:29.156Z,100816.41
2023-01-29T17:11:37.819Z,100814.53
2023-01-29T17:15:45.841Z,100799.09
2023-01-29T17:19:47.855Z,100800.00
2023-01-29T17:23:50.043Z,100793.94
2023-01-29T17:27:52.402Z,100792.16
2023-01-29T17:31:56.088Z,100781.84
2023-01-29T17:35:58.297Z,100778.47
2023-01-29T17:40:01.256Z,100775.00
2023-01-29T17:44:04.434Z,100768.78
2023-01-29T17:48:13.988Z,100751.50
2023-01-29T17:52:16.046Z,100749.09
2023-01-29T17:56:23.504Z,100737.16
2023-01-29T18:00:25.825Z,100721.50
2023-01-29T18:04:27.984Z,100719.81
2023-01-29T18:08:33.212Z,100717.97
2023-01-29T18:12:35.271Z,100711.88
2023-01-29T18:16:37.516Z,100696.53
2023-01-29T18:20:40.311Z,100677.38
2023-01-29T18:24:42.301Z,100670.94
2023-01-29T18:28:44.342Z,100666.59
2023-01-29T18:32:47.581Z,100660.63
2023-01-29T18:36:50.226Z,100681.25
2023-01-29T18:40:52.260Z,100678.53
2023-01-29T18:44:54.307Z,100681.16
2023-01-29T18:48:56.595Z,100672.66
2023-01-29T18:52:58.876Z,100678.50
2023-01-29T18:57:13.407Z,100669.22
2023-01-29T19:01:16.586Z,100661.88
2023-01-29T19:05:22.765Z,100660.13
2023-01-29T19:09:25.991Z,100659.28
2023-01-29T19:13:32.492Z,100662.69
2023-01-29T19:17:34.551Z,100647.00
2023-01-29T19:21:37.216Z,100658.25
2023-01-29T19:25:39.767Z,100657.22
2023-01-29T19:29:41.769Z,100641.06
2023-01-29T19:33:43.838Z,100636.25
2023-01-29T19:37:46.351Z,100639.34
2023-01-29T19:41:48.271Z,100629.00
2023-01-29T19:45:58.060Z,100623.06
2023-01-29T19:50:00.111Z,100613.69
2023-01-29T19:54:02.619Z,100612.56
2023-01-29T19:58:04.759Z,100604.22
2023-01-29T20:02:06.867Z,100607.75
2023-01-29T20:06:08.978Z,100610.38
2023-01-29T20:10:17.360Z,100594.75
2023-01-29T20:14:19.800Z,100594.91
2023-01-29T20:18:21.852Z,100582.81
2023-01-29T20:22:25.963Z,100577.47
2023-01-29T20:26:28.048Z,100571.47
2023-01-29T20:30:30.231Z,100571.34
2023-01-29T20:34:32.217Z,100561.41
2023-01-29T20:38:34.758Z,100561.16
2023-01-29T20:42:40.425Z,100547.31
2023-01-29T20:46:42.568Z,100540.28
2023-01-29T20:50:44.795Z,100530.00
2023-01-29T20:54:46.820Z,100522.13
2023-01-29T20:58:48.892Z,100529.66
2023-01-29T21:02:50.875Z,100522.19
2023-01-29T21:06:52.932Z,100517.69
2023-01-29T21:10:55.997Z,100517.00
2023-01-29T21:14:57.960Z,100514.69
2023-01-29T21:19:00.073Z,100520.59
2023-01-29T21:23:04.724Z,100511.69
2023-01-29T21:27:09.019Z,100508.19
2023-01-29T21:31:14.422Z,100505.88
2023-01-29T21:35:16.408Z,100501.25
2023-01-29T21:39:20.725Z,100496.22
2023-01-29T21:43:22.707Z,100489.72
2023-01-29T21:47:24.780Z,100489.75
2023-01-29T21:51:26.802Z,100481.91
2023-01-29T21:55:28.926Z,100481.00
2023-01-29T21:59:32.351Z,100470.75
2023-01-29T22:03:34.465Z,100459.31
2023-01-29T22:07:37.581Z,100461.03
2023-01-29T22:11:41.547Z,100452.28
2023-01-29T22:15:43.518Z,100442.00
2023-01-29T22:19:46.484Z,100435.94
2023-01-29T22:23:49.499Z,100425.53
2023-01-29T22:27:51.725Z,100410.06
2023-01-29T22:31:53.750Z,100400.56
2023-01-29T22:35:56.596Z,100391.97
2023-01-29T22:39:58.577Z,100384.22
2023-01-29T22:44:00.932Z,100378.13
2023-01-29T22:48:02.984Z,100367.94
2023-01-29T22:52:11.347Z,100365.34
2023-01-29T22:56:13.382Z,100351.72
2023-01-29T23:00:16.344Z,100342.63
2023-01-29T23:04:18.598Z,100340.19
2023-01-29T23:08:20.861Z,100335.88
2023-01-29T23:12:22.967Z,100321.00
2023-01-29T23:16:28.009Z,100296.13
2023-01-29T23:20:30.288Z,100297.38
2023-01-29T23:24:32.594Z,100295.84
2023-01-29T23:28:34.554Z,100287.88
2023-01-29T23:32:36.584Z,100282.53
2023-01-29T23:36:38.583Z,100273.59
2023-01-29T23:40:40.194Z,100258.41
2023-01-29T23:44:42.310Z,100257.22
2023-01-29T23:48:44.307Z,100253.69
2023-01-29T23:52:46.300Z,100245.34
2023-01-29T23:56:48.321Z,100238.41
